Time;durP1;ratioP1;P1;durP2;ratioP2;P2;SDS_P1;SDS_P2;PMS_P1;PMS_P2;Temp;Humidity;BMP_temperature;BMP_pressure;BME280_temperature;BME280_humidity;BME280_pressure;Samples;Min_cycle;Max_cycle;Signal;HPM_P1;HPM_P2
2022/10/22 00:00:42;;;;;;;7.25;4.90;;;;;;;6.30;74.58;99943.72;6237781;22;20062;-71
2022/10/22 00:03:07;;;;;;;9.05;5.22;;;;;;;6.25;74.05;99928.03;6233949;22;20094;-71
2022/10/22 00:05:31;;;;;;;7.40;5.30;;;;;;;6.23;73.92;99926.38;6233261;22;20015;-68
2022/10/22 00:07:56;;;;;;;13.40;6.25;;;;;;;6.19;75.15;99931.00;6228675;22;20022;-69
2022/10/22 00:10:21;;;;;;;8.35;4.95;;;;;;;6.14;75.28;99928.56;6229093;22;20064;-69
2022/10/22 00:12:45;;;;;;;10.27;5.82;;;;;;;6.16;75.08;99924.06;6230857;22;20098;-70
2022/10/22 00:15:10;;;;;;;7.95;4.97;;;;;;;6.19;75.17;99921.28;6230060;22;20101;-70
2022/10/22 00:17:35;;;;;;;8.85;5.25;;;;;;;6.23;74.62;99919.31;6228395;22;20038;-68
2022/10/22 00:20:00;;;;;;;8.15;5.50;;;;;;;6.26;74.62;99919.16;6230338;22;20027;-72
2022/10/22 00:22:24;;;;;;;9.10;5.90;;;;;;;6.28;75.08;99906.72;6228107;22;20020;-71
2022/10/22 00:24:49;;;;;;;8.45;5.38;;;;;;;6.32;74.70;99904.78;6227589;22;20347;-71
2022/10/22 00:27:13;;;;;;;8.45;5.97;;;;;;;6.35;75.10;99912.56;6230014;22;20019;-71
2022/10/22 00:29:40;;;;;;;8.27;5.88;;;;;;;6.33;74.95;99906.47;6229525;22;20019;-68
2022/10/22 00:32:05;;;;;;;9.90;6.10;;;;;;;6.31;74.41;99911.00;6228998;22;20022;-65
2022/10/22 00:34:30;;;;;;;10.48;6.57;;;;;;;6.30;75.46;99904.84;6207382;22;20130;-75
2022/10/22 00:36:55;;;;;;;9.05;6.38;;;;;;;6.30;75.33;99919.88;6230434;22;20015;-71
2022/10/22 00:39:22;;;;;;;9.50;6.20;;;;;;;6.29;75.38;99902.28;6202424;22;20019;-66
2022/10/22 00:41:49;;;;;;;9.95;6.72;;;;;;;6.24;75.83;99910.44;6228107;22;20026;-70
2022/10/22 00:44:51;;;;;;;8.82;6.15;;;;;;;6.29;75.08;99910.22;6202116;22;20016;-69
2022/10/22 00:47:17;;;;;;;9.32;6.28;;;;;;;6.21;75.79;99913.22;6239939;22;20048;-69
2022/10/22 00:49:43;;;;;;;9.75;6.47;;;;;;;6.16;76.10;99915.25;6228066;22;20081;-66
2022/10/22 00:52:08;;;;;;;10.23;6.57;;;;;;;6.10;75.68;99905.81;6229413;22;20518;-68
2022/10/22 00:54:33;;;;;;;11.18;7.00;;;;;;;6.15;76.15;99910.91;6228927;22;20470;-66
2022/10/22 00:57:00;;;;;;;8.38;6.15;;;;;;;6.15;76.07;99911.75;6227498;22;20023;-66
2022/10/22 00:59:24;;;;;;;10.50;6.97;;;;;;;6.18;76.14;99906.31;6227861;22;20026;-67
2022/10/22 01:01:51;;;;;;;9.18;6.70;;;;;;;6.21;75.81;99900.00;6227770;22;20015;-67
2022/10/22 01:04:16;;;;;;;10.18;6.95;;;;;;;6.25;75.86;99898.91;6228873;22;20100;-67
2022/10/22 01:06:40;;;;;;;9.60;6.50;;;;;;;6.26;75.54;99902.41;6228570;22;20023;-67
2022/10/22 01:09:25;;;;;;;10.35;6.13;;;;;;;6.32;75.68;99912.72;6229003;22;20017;-69
2022/10/22 01:12:02;;;;;;;9.23;6.78;;;;;;;6.32;75.68;99899.50;6227512;22;20027;-68
2022/10/22 01:15:04;;;;;;;11.00;7.75;;;;;;;6.34;75.04;99905.53;6228532;22;20347;-68
2022/10/22 01:17:40;;;;;;;11.23;6.80;;;;;;;6.27;75.26;99909.44;6227648;22;20022;-67
2022/10/22 01:20:35;;;;;;;8.38;6.20;;;;;;;6.26;75.65;99905.06;6229536;22;20023;-69
2022/10/22 01:23:20;;;;;;;;;;;;;;;6.33;75.17;99903.81;6239677;22;20100;-67
2022/10/22 01:26:17;;;;;;;7.82;5.20;;;;;;;6.27;75.42;99909.44;6229389;22;19919;-65
2022/10/22 01:28:41;;;;;;;8.57;6.40;;;;;;;6.21;74.98;99902.63;6207595;22;20023;-68
2022/10/22 01:31:08;;;;;;;9.57;7.05;;;;;;;6.23;75.92;99910.50;6239540;22;20047;-73
2022/10/22 01:33:34;;;;;;;9.52;5.93;;;;;;;6.24;75.69;99906.94;6229001;22;20092;-70
2022/10/22 01:35:59;;;;;;;8.90;6.55;;;;;;;6.25;75.34;99917.44;6227604;22;20016;-70
2022/10/22 01:38:24;;;;;;;8.25;5.82;;;;;;;6.27;75.17;99914.72;6227327;22;20023;-67
2022/10/22 01:40:50;;;;;;;12.07;6.07;;;;;;;6.27;75.63;99909.44;6229319;22;20015;-70
2022/10/22 01:43:15;;;;;;;9.00;5.35;;;;;;;6.28;75.48;99911.16;6229367;22;20020;-67
2022/10/22 01:45:47;;;;;;;8.10;5.32;;;;;;;6.33;75.50;99920.56;6229111;22;20416;-63
2022/10/22 01:48:28;;;;;;;6.55;4.85;;;;;;;6.33;74.92;99915.28;6228957;22;20016;-64
2022/10/22 01:50:56;;;;;;;6.00;4.90;;;;;;;6.39;74.91;99919.41;6228464;22;20443;-65
2022/10/22 01:53:20;;;;;;;7.68;5.40;;;;;;;6.38;75.57;99912.41;6230732;22;20020;-71
2022/10/22 01:56:10;;;;;;;6.95;5.25;;;;;;;6.43;75.38;99915.69;6230393;22;20027;-69
2022/10/22 01:59:01;;;;;;;8.77;5.80;;;;;;;6.44;74.67;99922.69;6229318;22;20065;-70
2022/10/22 02:01:39;;;;;;;8.02;5.53;;;;;;;6.39;75.17;99927.38;6229264;22;20020;-64
2022/10/22 02:04:16;;;;;;;10.38;5.55;;;;;;;6.39;74.81;99925.56;6230514;22;20448;-65
2022/10/22 02:06:43;;;;;;;9.57;6.07;;;;;;;6.37;75.50;99927.44;6231425;22;20043;-71
2022/10/22 02:09:09;;;;;;;10.88;5.78;;;;;;;6.39;74.74;99924.72;6229292;22;20078;-66
2022/10/22 02:11:33;;;;;;;7.85;5.45;;;;;;;6.34;74.50;99927.56;6230659;22;20020;-66
2022/10/22 02:14:02;;;;;;;7.63;5.45;;;;;;;6.35;74.92;99928.44;6229091;22;20098;-64
2022/10/22 02:16:40;;;;;;;9.20;5.53;;;;;;;6.34;75.06;99922.28;6225589;22;20038;-67
2022/10/22 02:19:18;;;;;;;8.55;5.97;;;;;;;6.36;75.00;99930.16;6203906;22;20024;-74
2022/10/22 02:21:43;;;;;;;10.10;6.72;;;;;;;6.29;75.20;99934.06;6229141;22;20020;-73
2022/10/22 02:24:08;;;;;;;7.68;5.53;;;;;;;6.31;75.52;99940.13;6228782;22;20016;-73
2022/10/22 02:26:52;;;;;;;8.95;5.82;;;;;;;6.31;75.55;99937.47;6231671;22;20022;-67
2022/10/22 02:29:29;;;;;;;9.38;6.40;;;;;;;6.33;74.92;99930.28;6209462;22;20430;-71
2022/10/22 02:31:56;;;;;;;7.75;6.07;;;;;;;6.30;74.80;99936.63;6238970;22;20046;-72
2022/10/22 02:34:27;;;;;;;8.90;5.95;;;;;;;6.30;75.12;99935.78;6241781;22;20004;-67
2022/10/22 02:36:53;;;;;;;8.13;5.78;;;;;;;6.25;74.95;99938.63;6179246;22;20020;-74
2022/10/22 02:39:19;;;;;;;6.78;5.28;;;;;;;6.14;75.32;99933.88;6205579;22;20074;-74
2022/10/22 02:41:44;;;;;;;9.05;5.82;;;;;;;6.07;75.51;99928.94;6231435;22;20026;-71
2022/10/22 02:44:10;;;;;;;7.70;6.03;;;;;;;6.08;75.40;99950.06;6232050;22;20123;-75
2022/10/22 02:46:34;;;;;;;9.50;6.18;;;;;;;6.01;75.40;99935.38;6229758;22;20470;-73
2022/10/22 02:48:59;;;;;;;9.93;6.03;;;;;;;6.00;75.67;99932.81;6229016;22;20463;-67
2022/10/22 02:51:23;;;;;;;7.55;5.72;;;;;;;5.96;75.17;99937.41;6228172;22;20451;-71
2022/10/22 02:53:48;;;;;;;9.70;5.97;;;;;;;5.87;76.13;99939.59;6230389;22;20444;-71
2022/10/22 02:56:13;;;;;;;15.43;6.93;;;;;;;5.85;75.67;99934.38;6228813;22;20026;-71
2022/10/22 02:58:37;;;;;;;9.80;6.65;;;;;;;5.88;76.38;99944.84;6228630;22;20011;-71
2022/10/22 03:01:02;;;;;;;9.40;5.90;;;;;;;5.92;76.36;99935.81;6228294;22;20020;-68
2022/10/22 03:03:27;;;;;;;7.88;5.57;;;;;;;5.88;75.88;99933.34;6230360;22;20016;-74
2022/10/22 03:05:52;;;;;;;9.38;6.47;;;;;;;5.89;76.05;99943.91;6231395;22;20153;-75
2022/10/22 03:08:17;;;;;;;9.05;6.57;;;;;;;5.94;76.17;99941.06;6230730;22;20011;-70
2022/10/22 03:10:42;;;;;;;11.07;7.10;;;;;;;5.97;76.26;99943.56;6230334;22;20068;-73
2022/10/22 03:13:07;;;;;;;13.52;7.43;;;;;;;5.99;76.00;99939.03;6230112;22;20020;-73
2022/10/22 03:15:31;;;;;;;12.35;7.78;;;;;;;6.01;76.03;99940.66;6229467;22;20100;-74
2022/10/22 03:17:56;;;;;;;10.95;7.85;;;;;;;6.01;75.66;99938.03;6229197;22;20093;-72
2022/10/22 03:20:20;;;;;;;16.65;8.85;;;;;;;6.02;75.59;99938.88;6232395;22;20020;-75
2022/10/22 03:22:45;;;;;;;14.02;9.43;;;;;;;6.02;75.80;99938.88;6231178;22;20042;-74
2022/10/22 03:25:15;;;;;;;13.70;10.00;;;;;;;6.06;76.03;99938.69;6229383;22;20520;-78
2022/10/22 03:27:41;;;;;;;14.38;9.07;;;;;;;6.08;75.45;99943.91;6230592;22;20016;-77
2022/10/22 03:30:07;;;;;;;12.85;9.32;;;;;;;6.08;75.82;99941.25;6229926;22;20015;-74
2022/10/22 03:32:31;;;;;;;17.20;11.52;;;;;;;6.11;76.27;99935.78;6231445;22;20047;-76
2022/10/22 03:34:56;;;;;;;16.52;10.30;;;;;;;6.14;76.15;99939.16;6230585;22;20016;-72
2022/10/22 03:37:22;;;;;;;17.10;10.73;;;;;;;6.18;76.14;99932.78;6203174;22;20015;-71
2022/10/22 03:39:47;;;;;;;15.43;10.30;;;;;;;6.21;75.83;99936.22;6230694;22;20118;-72
2022/10/22 03:42:12;;;;;;;18.05;10.05;;;;;;;6.24;75.83;99938.69;6235063;22;20070;-73
2022/10/22 03:44:39;;;;;;;17.60;11.05;;;;;;;6.24;75.37;99941.34;6233864;22;20102;-71
2022/10/22 03:47:04;;;;;;;17.63;10.68;;;;;;;6.21;75.87;99941.53;6208575;22;20046;-73
2022/10/22 03:49:29;;;;;;;16.48;10.15;;;;;;;6.22;75.88;99938.78;6229179;22;20016;-72
2022/10/22 03:51:53;;;;;;;15.27;10.18;;;;;;;6.24;75.24;99938.69;6228026;22;20452;-72
2022/10/22 03:54:18;;;;;;;17.13;10.73;;;;;;;6.21;75.38;99934.41;6230196;22;20016;-71
2022/10/22 03:56:42;;;;;;;13.57;9.65;;;;;;;6.24;75.63;99941.34;6230032;22;20020;-73
2022/10/22 03:59:07;;;;;;;14.50;9.02;;;;;;;6.23;75.21;99944.94;6229958;22;20019;-72
2022/10/22 04:01:32;;;;;;;14.43;9.75;;;;;;;6.24;75.05;99942.22;6229616;22;20022;-70
2022/10/22 04:03:57;;;;;;;16.08;10.88;;;;;;;6.24;75.17;99946.63;6228302;22;20026;-70
2022/10/22 04:06:22;;;;;;;15.70;10.30;;;;;;;6.18;74.95;99938.09;6230286;22;20020;-72
2022/10/22 04:08:47;;;;;;;13.50;9.68;;;;;;;6.20;75.17;99945.97;6228933;22;20030;-72
2022/10/22 04:11:12;;;;;;;15.40;9.88;;;;;;;6.22;75.91;99948.50;6229819;22;20042;-71
2022/10/22 04:13:38;;;;;;;16.73;9.85;;;;;;;6.20;75.78;99945.97;6229184;22;20012;-70
2022/10/22 04:16:20;;;;;;;17.40;10.45;;;;;;;6.27;75.19;99947.34;6229113;22;20020;-71
2022/10/22 04:18:46;;;;;;;14.00;10.00;;;;;;;6.24;74.68;99941.34;6227196;22;20073;-70
2022/10/22 04:21:12;;;;;;;17.80;10.68;;;;;;;6.18;74.99;99940.72;6228476;22;20043;-69
2022/10/22 04:23:37;;;;;;;20.15;10.68;;;;;;;6.14;75.39;99944.44;6230369;22;20351;-69
2022/10/22 04:26:06;;;;;;;12.82;7.97;;;;;;;6.19;75.54;99937.16;6229574;22;20051;-68
2022/10/22 04:28:32;;;;;;;13.02;7.88;;;;;;;6.15;75.65;99940.00;6203643;22;20397;-67
2022/10/22 04:30:56;;;;;;;15.88;9.35;;;;;;;6.15;75.85;99940.88;6229520;22;20022;-72
2022/10/22 04:33:21;;;;;;;13.00;9.57;;;;;;;6.15;75.98;99937.38;6228116;22;20019;-71
2022/10/22 04:35:46;;;;;;;16.15;9.63;;;;;;;6.16;75.92;99949.66;6229979;22;20015;-72
2022/10/22 04:38:12;;;;;;;12.05;8.23;;;;;;;6.17;75.53;99952.25;6227815;22;20039;-72
2022/10/22 04:40:36;;;;;;;13.63;8.95;;;;;;;6.14;75.21;99940.94;6229340;22;20385;-72
2022/10/22 04:43:01;;;;;;;12.88;9.00;;;;;;;6.13;75.20;99945.38;6228948;22;20043;-71
2022/10/22 04:45:25;;;;;;;13.02;8.25;;;;;;;6.16;75.78;99952.31;6229963;22;20026;-72
2022/10/22 04:47:50;;;;;;;16.63;8.23;;;;;;;6.18;76.07;99943.38;6228295;22;20127;-71
2022/10/22 04:50:15;;;;;;;15.75;7.82;;;;;;;6.19;75.74;99945.09;6229114;22;20086;-71
2022/10/22 04:52:39;;;;;;;15.05;9.25;;;;;;;6.22;75.14;99945.84;6229576;22;20011;-71
2022/10/22 04:55:04;;;;;;;12.52;8.50;;;;;;;6.22;75.12;99953.78;6229629;22;20477;-72
2022/10/22 04:57:30;;;;;;;17.33;9.68;;;;;;;6.19;74.92;99950.38;6229905;22;20020;-72
2022/10/22 04:59:55;;;;;;;15.20;8.40;;;;;;;6.20;75.56;99951.25;6230216;22;20072;-72
2022/10/22 05:02:19;;;;;;;11.35;7.43;;;;;;;6.26;75.69;99958.88;6229426;22;20024;-71
2022/10/22 05:04:44;;;;;;;14.15;8.93;;;;;;;6.30;75.17;99959.59;6228580;22;20026;-71
2022/10/22 05:07:09;;;;;;;12.70;7.85;;;;;;;6.29;74.90;99955.22;6226438;22;20022;-72
2022/10/22 05:09:33;;;;;;;10.68;7.10;;;;;;;6.35;74.95;99958.41;6229019;22;20051;-71
2022/10/22 05:11:58;;;;;;;14.90;7.10;;;;;;;6.38;75.10;99955.63;6229549;22;20347;-72
2022/10/22 05:14:24;;;;;;;13.95;7.47;;;;;;;6.42;75.18;99967.81;6229102;22;20012;-73
2022/10/22 05:16:49;;;;;;;9.55;7.32;;;;;;;6.47;75.39;99967.56;6229739;22;20038;-72
2022/10/22 05:19:20;;;;;;;11.50;7.53;;;;;;;6.53;74.71;99961.97;6227215;22;20390;-72
2022/10/22 05:21:45;;;;;;;13.45;6.82;;;;;;;6.53;74.66;99962.81;6229282;22;20023;-72
2022/10/22 05:24:09;;;;;;;11.73;7.88;;;;;;;6.53;74.04;99960.19;6229759;22;20025;-71
2022/10/22 05:26:34;;;;;;;11.73;7.30;;;;;;;6.54;74.88;99956.59;6229507;22;20110;-72
2022/10/22 05:28:58;;;;;;;14.60;7.70;;;;;;;6.55;74.24;99966.22;6227252;22;20023;-71
2022/10/22 05:31:24;;;;;;;13.05;8.02;;;;;;;6.48;74.25;99972.78;6229289;22;20015;-73
2022/10/22 05:33:48;;;;;;;12.90;8.05;;;;;;;6.50;74.38;99978.00;6229968;22;20022;-71
2022/10/22 05:36:16;;;;;;;11.27;7.35;;;;;;;6.50;74.41;99980.66;6227699;22;20455;-71
2022/10/22 05:38:41;;;;;;;12.00;7.93;;;;;;;6.49;74.67;99971.84;6228935;22;20022;-70
2022/10/22 05:41:09;;;;;;;9.90;6.68;;;;;;;6.55;74.56;99979.47;6229101;22;20015;-71
2022/10/22 05:43:34;;;;;;;11.15;6.47;;;;;;;6.61;74.57;99975.69;6228929;22;20421;-71
2022/10/22 05:46:15;;;;;;;10.13;6.60;;;;;;;6.74;74.74;99971.47;6201951;22;20015;-69
2022/10/22 05:48:41;;;;;;;11.73;7.82;;;;;;;6.70;73.64;99977.88;6228993;22;20392;-70
2022/10/22 05:51:08;;;;;;;9.13;6.63;;;;;;;6.74;73.81;99978.56;6227185;22;20012;-70
2022/10/22 05:53:34;;;;;;;10.25;6.07;;;;;;;6.68;73.36;99973.56;6201834;22;20042;-72
2022/10/22 05:56:04;;;;;;;13.45;7.00;;;;;;;6.68;73.56;99985.03;6227462;22;20076;-71
2022/10/22 05:58:29;;;;;;;10.25;6.13;;;;;;;6.77;73.69;99975.78;6228799;22;20073;-71
2022/10/22 06:00:53;;;;;;;10.95;6.70;;;;;;;6.88;73.52;99968.97;6228805;22;20015;-71
2022/10/22 06:03:18;;;;;;;23.77;8.45;;;;;;;7.01;73.18;99981.59;6227592;22;20353;-70
2022/10/22 06:05:42;;;;;;;14.85;6.63;;;;;;;7.15;72.85;99981.75;6228612;22;20103;-70
2022/10/22 06:08:11;;;;;;;8.15;5.78;;;;;;;7.25;72.07;99975.03;6229169;22;20451;-71
2022/10/22 06:10:41;;;;;;;13.80;7.40;;;;;;;7.32;71.72;99981.75;6227502;22;20020;-70
2022/10/22 06:13:07;;;;;;;10.00;6.80;;;;;;;7.35;71.74;99984.19;6229282;22;20056;-71
2022/10/22 06:15:31;;;;;;;9.00;5.97;;;;;;;7.34;70.82;99978.97;6229348;22;20015;-72
2022/10/22 06:17:56;;;;;;;9.68;6.20;;;;;;;7.33;70.89;99979.94;6230472;22;20098;-71
2022/10/22 06:20:20;;;;;;;13.98;6.55;;;;;;;7.31;71.10;99972.06;6237122;22;20389;-72
2022/10/22 06:22:47;;;;;;;11.43;6.55;;;;;;;7.31;70.99;99977.38;6231080;22;20039;-72
2022/10/22 06:25:13;;;;;;;14.55;7.15;;;;;;;7.31;71.28;99977.38;6228961;22;20027;-73
2022/10/22 06:27:37;;;;;;;12.82;5.82;;;;;;;7.37;71.39;99978.81;6234496;22;20069;-71
2022/10/22 06:30:02;;;;;;;11.52;6.05;;;;;;;7.44;70.99;99981.09;6234087;22;20016;-70
2022/10/22 06:32:27;;;;;;;7.43;5.72;;;;;;;7.57;70.77;99983.91;6234166;22;20024;-69
2022/10/22 06:34:52;;;;;;;11.25;6.75;;;;;;;7.67;70.06;99986.97;6233689;22;20011;-71
2022/10/22 06:37:16;;;;;;;8.55;6.15;;;;;;;7.77;69.91;99988.16;6232710;22;20019;-71
2022/10/22 06:39:41;;;;;;;10.02;6.40;;;;;;;7.90;69.82;99984.72;6236282;22;20011;-69
2022/10/22 06:42:05;;;;;;;12.32;7.85;;;;;;;7.98;69.40;99982.53;6232731;22;20532;-69
2022/10/22 06:44:32;;;;;;;11.50;6.65;;;;;;;8.04;69.12;99991.94;6231152;22;20501;-69
2022/10/22 06:46:56;;;;;;;11.85;7.28;;;;;;;7.96;69.19;99986.22;6231242;22;20442;-70
2022/10/22 06:49:21;;;;;;;10.38;6.55;;;;;;;8.03;69.77;99990.22;6230715;22;20027;-71
2022/10/22 06:51:49;;;;;;;12.00;6.68;;;;;;;8.16;68.83;99998.38;6228859;22;20022;-69
2022/10/22 06:54:14;;;;;;;7.57;5.53;;;;;;;8.18;68.75;99999.16;6233206;22;20061;-70
2022/10/22 06:56:39;;;;;;;8.38;5.68;;;;;;;8.19;68.76;100009.69;6234490;22;20075;-70
2022/10/22 06:59:04;;;;;;;8.15;6.35;;;;;;;8.23;68.63;100003.28;6234083;22;20019;-72
2022/10/22 07:01:31;;;;;;;7.82;6.43;;;;;;;8.19;68.20;100001.72;6235163;22;20022;-72
2022/10/22 07:03:56;;;;;;;7.82;5.35;;;;;;;8.14;68.46;99998.44;6235501;22;20016;-72
2022/10/22 07:06:22;;;;;;;7.90;5.13;;;;;;;8.10;68.79;100010.22;6234885;22;20022;-71
2022/10/22 07:08:47;;;;;;;11.75;5.57;;;;;;;7.99;68.74;100009.94;6231830;22;20124;-72
2022/10/22 07:11:14;;;;;;;9.50;5.25;;;;;;;7.93;69.38;100011.13;6231826;22;20043;-73
2022/10/22 07:13:40;;;;;;;10.38;5.93;;;;;;;7.93;69.55;100015.56;6231909;22;20515;-71
2022/10/22 07:16:06;;;;;;;10.63;5.95;;;;;;;7.88;69.37;100014.97;6204706;22;20355;-69
2022/10/22 07:18:33;;;;;;;8.35;5.68;;;;;;;7.77;69.37;100002.28;6229706;22;20023;-68
2022/10/22 07:20:58;;;;;;;9.10;5.40;;;;;;;7.64;69.86;100004.75;6230780;22;20012;-71
2022/10/22 07:23:23;;;;;;;7.88;5.63;;;;;;;7.60;70.12;100018.25;6232770;22;20137;-70
2022/10/22 07:25:47;;;;;;;8.15;5.53;;;;;;;7.55;70.53;100015.84;6235652;22;20011;-72
2022/10/22 07:28:13;;;;;;;7.05;4.65;;;;;;;7.48;70.90;100014.44;6235310;22;20090;-72
2022/10/22 07:30:38;;;;;;;8.77;5.20;;;;;;;7.49;71.00;100013.50;6235505;22;20054;-72
2022/10/22 07:33:03;;;;;;;6.72;5.13;;;;;;;7.52;70.59;100005.41;6234300;22;20020;-72
2022/10/22 07:35:28;;;;;;;7.70;5.40;;;;;;;7.60;70.64;100027.06;6234610;22;20130;-72
2022/10/22 07:37:52;;;;;;;7.82;5.88;;;;;;;7.63;70.35;100011.00;6237216;22;20026;-72
2022/10/22 07:40:17;;;;;;;10.18;6.53;;;;;;;7.73;70.51;100013.16;6231223;22;20046;-73
2022/10/22 07:42:42;;;;;;;13.75;6.95;;;;;;;7.78;69.76;100003.16;6229129;22;20582;-70
2022/10/22 07:45:07;;;;;;;9.52;6.82;;;;;;;7.80;69.60;100003.91;6229952;22;20026;-70
2022/10/22 07:47:33;;;;;;;9.48;6.45;;;;;;;7.86;69.57;100008.91;6230134;22;20020;-69
2022/10/22 07:49:57;;;;;;;11.07;6.63;;;;;;;7.90;69.28;100005.16;6202540;22;20477;-70
2022/10/22 07:52:22;;;;;;;10.95;6.20;;;;;;;7.91;68.67;100007.69;6230119;22;20451;-69
2022/10/22 07:54:47;;;;;;;8.85;6.47;;;;;;;7.92;68.68;100008.53;6229879;22;20011;-71
2022/10/22 07:57:11;;;;;;;9.63;6.55;;;;;;;7.95;68.64;100003.94;6230421;22;20391;-71
2022/10/22 07:59:36;;;;;;;9.20;5.78;;;;;;;8.00;68.34;100007.22;6229943;22;20016;-71
2022/10/22 08:02:00;;;;;;;11.05;6.85;;;;;;;8.05;68.35;100003.41;6228348;22;20038;-71
2022/10/22 08:04:25;;;;;;;8.95;6.25;;;;;;;8.13;68.54;100002.03;6229950;22;20016;-70
2022/10/22 08:06:50;;;;;;;8.50;5.80;;;;;;;8.15;67.95;100001.97;6230267;22;20019;-72
2022/10/22 08:09:15;;;;;;;6.63;4.65;;;;;;;8.23;67.77;100011.25;6229515;22;20020;-70
2022/10/22 08:11:40;;;;;;;7.93;5.15;;;;;;;8.28;67.42;100003.00;6207481;22;20077;-72
2022/10/22 08:14:04;;;;;;;8.13;5.03;;;;;;;8.32;67.76;100008.09;6231244;22;20041;-70
2022/10/22 08:16:29;;;;;;;25.73;7.13;;;;;;;8.35;66.87;100007.06;6230093;22;20076;-70
2022/10/22 08:18:55;;;;;;;17.73;5.30;;;;;;;8.40;66.95;100009.44;6227742;22;20146;-71
2022/10/22 08:21:19;;;;;;;9.55;4.95;;;;;;;8.40;66.18;100004.13;6229869;22;20023;-71
2022/10/22 08:23:44;;;;;;;7.25;4.57;;;;;;;8.42;66.28;100012.88;6229325;22;20020;-71
2022/10/22 08:26:10;;;;;;;6.72;4.25;;;;;;;8.37;66.77;100008.69;6229861;22;20069;-72
2022/10/22 08:28:36;;;;;;;6.43;4.25;;;;;;;8.36;66.93;100009.63;6230336;22;20034;-73
2022/10/22 08:31:00;;;;;;;10.05;4.20;;;;;;;8.32;66.37;100009.91;6230759;22;20054;-73
2022/10/22 08:33:25;;;;;;;7.40;4.78;;;;;;;8.42;66.38;100003.13;6227931;22;20016;-73
2022/10/22 08:35:50;;;;;;;11.77;4.80;;;;;;;8.47;66.16;100014.31;6229668;22;20015;-73
2022/10/22 08:38:15;;;;;;;7.50;4.10;;;;;;;8.25;66.15;100011.97;6229749;22;20043;-71
2022/10/22 08:40:43;;;;;;;7.00;4.28;;;;;;;8.25;66.10;100011.97;6227724;22;20069;-71
2022/10/22 08:43:29;;;;;;;7.03;4.15;;;;;;;8.22;66.41;100011.31;6228099;22;20043;-73
2022/10/22 08:46:13;;;;;;;6.78;4.13;;;;;;;8.03;67.00;100008.81;6229652;22;20020;-73
2022/10/22 08:48:49;;;;;;;9.60;4.97;;;;;;;8.00;67.04;100017.81;6229563;22;20350;-71
2022/10/22 08:51:20;;;;;;;7.22;4.57;;;;;;;7.95;66.79;100017.22;6202460;22;20047;-72
2022/10/22 08:54:16;;;;;;;6.05;4.70;;;;;;;7.93;67.38;100016.44;6229520;22;20015;-71
2022/10/22 08:56:44;;;;;;;8.93;4.90;;;;;;;7.78;67.82;100008.47;6229256;22;20148;-72
2022/10/22 08:59:20;;;;;;;7.10;4.45;;;;;;;7.75;67.89;100016.59;6229105;22;20355;-70
2022/10/22 09:01:50;;;;;;;11.32;5.22;;;;;;;7.69;68.37;100015.09;6227467;22;20027;-68
2022/10/22 09:04:32;;;;;;;8.93;4.70;;;;;;;7.73;68.38;100015.81;6229054;22;20012;-69
2022/10/22 09:06:59;;;;;;;6.63;5.00;;;;;;;7.75;68.17;100008.63;6228898;22;20447;-68
2022/10/22 09:09:29;;;;;;;5.82;4.47;;;;;;;7.86;68.65;100011.56;6229201;22;20015;-69
2022/10/22 09:11:56;;;;;;;8.43;5.07;;;;;;;7.94;68.20;100011.97;6229009;22;20069;-69
2022/10/22 09:14:23;;;;;;;7.60;5.07;;;;;;;7.98;68.03;100008.22;6227543;22;20022;-68
2022/10/22 09:17:03;;;;;;;7.85;5.00;;;;;;;8.08;67.75;100009.44;6227491;22;20012;-69
2022/10/22 09:20:06;;;;;;;12.90;4.95;;;;;;;8.19;67.75;100007.03;6227911;22;20073;-69
2022/10/22 09:22:39;;;;;;;9.90;4.82;;;;;;;8.11;67.12;100003.94;6239666;22;20011;-69
2022/10/22 09:25:18;;;;;;;10.18;5.15;;;;;;;8.16;67.50;100001.88;6239504;22;20046;-69
2022/10/22 09:27:43;;;;;;;10.88;5.38;;;;;;;8.12;67.41;100003.00;6239866;22;20026;-69
2022/10/22 09:30:15;;;;;;;5.55;4.63;;;;;;;8.16;67.18;100004.53;6228911;22;20015;-69
2022/10/22 09:32:40;;;;;;;9.77;5.28;;;;;;;7.94;66.97;100002.22;6227393;22;20328;-68
2022/10/22 09:35:10;;;;;;;17.80;5.38;;;;;;;7.92;67.12;100000.56;6229580;22;20026;-70
2022/10/22 09:37:35;;;;;;;12.52;5.90;;;;;;;7.86;67.35;99999.13;6227729;22;20102;-73
2022/10/22 09:40:03;;;;;;;8.82;5.72;;;;;;;7.93;67.56;100005.81;6227598;22;20025;-71
2022/10/22 09:42:28;;;;;;;10.25;4.75;;;;;;;7.98;67.48;100003.78;6229092;22;20023;-73
2022/10/22 09:44:59;;;;;;;14.60;6.55;;;;;;;8.08;67.19;100009.44;6229796;22;20073;-71
2022/10/22 09:47:38;;;;;;;9.10;4.88;;;;;;;8.16;66.62;100007.19;6226640;22;20767;-72
2022/10/22 09:50:11;;;;;;;6.00;4.47;;;;;;;8.20;67.11;100006.09;6228842;22;20011;-71
2022/10/22 09:52:38;;;;;;;8.57;4.95;;;;;;;8.17;66.88;100003.59;6228841;22;20027;-71
2022/10/22 09:55:13;;;;;;;8.77;5.38;;;;;;;8.29;66.67;100000.25;6227890;22;20024;-72
2022/10/22 09:57:38;;;;;;;9.65;4.88;;;;;;;8.34;66.31;99998.25;6229716;22;20019;-74
2022/10/22 10:00:08;;;;;;;7.32;4.63;;;;;;;8.44;66.26;100000.38;6230200;22;20022;-74
2022/10/22 10:02:33;;;;;;;8.88;5.40;;;;;;;8.37;65.91;100000.69;6230327;22;20015;-74
2022/10/22 10:05:01;;;;;;;10.38;5.40;;;;;;;8.30;65.85;99993.16;6230321;22;20343;-72
2022/10/22 10:07:37;;;;;;;10.95;5.32;;;;;;;8.28;66.30;99992.38;6230424;22;20024;-70
2022/10/22 10:10:16;;;;;;;7.20;4.60;;;;;;;8.24;66.08;99994.34;6226802;22;20025;-72
2022/10/22 10:12:52;;;;;;;6.50;5.50;;;;;;;8.24;66.70;99983.72;6228952;22;20027;-71
2022/10/22 10:15:30;;;;;;;7.40;4.97;;;;;;;8.27;66.12;99988.00;6230898;22;20065;-72
2022/10/22 10:18:20;;;;;;;7.78;5.60;;;;;;;8.32;66.43;99983.31;6230252;22;20046;-74
2022/10/22 10:20:58;;;;;;;10.25;5.05;;;;;;;8.36;65.93;99988.34;6240639;22;20018;-73
2022/10/22 10:23:50;;;;;;;10.20;5.72;;;;;;;8.38;66.20;99981.16;6203723;22;20011;-74
2022/10/22 10:26:21;;;;;;;10.48;5.32;;;;;;;8.46;66.21;99987.88;6232781;22;20020;-74
2022/10/22 10:28:58;;;;;;;14.63;6.03;;;;;;;8.56;66.07;99984.59;6232844;22;20094;-71
2022/10/22 10:31:41;;;;;;;7.72;4.60;;;;;;;8.70;65.94;99975.78;6232619;22;20023;-74
2022/10/22 10:34:21;;;;;;;10.98;5.13;;;;;;;8.74;64.89;99975.53;6233478;22;20026;-73
2022/10/22 10:37:07;;;;;;;13.00;5.68;;;;;;;8.86;65.07;99970.44;6230588;22;20518;-72
2022/10/22 10:39:47;;;;;;;8.20;4.97;;;;;;;8.86;64.17;99968.63;6233438;22;20450;-74
2022/10/22 10:42:36;;;;;;;9.60;4.57;;;;;;;8.85;63.90;99974.03;6230738;22;20026;-71
2022/10/22 10:45:08;;;;;;;3.70;3.35;;;;;;;8.81;63.92;99976.00;6228567;22;20403;-74
2022/10/22 10:47:35;;;;;;;4.78;4.22;;;;;;;8.62;63.84;99973.59;6230723;22;20455;-72
2022/10/22 10:50:26;;;;;;;6.13;3.67;;;;;;;8.57;64.56;99973.00;6230914;22;20043;-72
2022/10/22 10:53:06;;;;;;;8.82;4.93;;;;;;;8.51;64.64;99976.00;6058880;23;20024;-73
2022/10/22 10:55:37;;;;;;;7.50;4.00;;;;;;;8.52;65.15;99961.78;6108680;23;20049;-73
2022/10/22 10:58:09;;;;;;;9.02;3.90;;;;;;;8.54;65.33;99964.34;6083402;23;20021;-72
2022/10/22 11:00:45;;;;;;;8.90;4.40;;;;;;;8.49;64.77;99963.75;6107594;23;20048;-72
2022/10/22 11:03:37;;;;;;;6.15;3.85;;;;;;;8.52;65.08;99968.91;6083429;23;20024;-73
2022/10/22 11:06:09;;;;;;;5.75;3.85;;;;;;;8.44;64.73;99961.38;6059046;23;20096;-73
2022/10/22 11:08:40;;;;;;;4.53;3.22;;;;;;;8.30;64.54;99967.44;6107535;23;20028;-72
2022/10/22 11:11:10;;;;;;;4.55;3.45;;;;;;;8.30;64.85;99962.13;6107678;23;20567;-72
2022/10/22 11:13:59;;;;;;;4.75;3.33;;;;;;;8.33;64.83;99961.13;6083048;23;20017;-73
2022/10/22 11:16:43;;;;;;;4.65;3.35;;;;;;;8.20;64.49;99954.78;6108085;23;20048;-71
2022/10/22 11:19:10;;;;;;;7.43;3.80;;;;;;;8.17;65.48;99960.25;6108057;23;20049;-73
2022/10/22 11:21:50;;;;;;;5.50;3.67;;;;;;;8.19;65.42;99953.06;6118146;23;20017;-72
2022/10/22 11:24:14;;;;;;;5.13;3.78;;;;;;;8.16;64.77;99956.75;6107171;23;20025;-72
2022/10/22 11:26:50;;;;;;;4.63;3.63;;;;;;;8.17;65.13;99947.84;6107597;23;20021;-71
2022/10/22 11:29:29;;;;;;;4.68;3.30;;;;;;;8.14;65.36;99949.78;6116234;22;20030;-76
2022/10/22 11:31:55;;;;;;;5.18;3.58;;;;;;;8.02;65.28;99946.88;6232059;22;20019;-76
2022/10/22 11:34:49;;;;;;;4.80;2.72;;;;;;;8.08;65.24;99944.84;6230262;22;20382;-75
2022/10/22 11:37:15;;;;;;;6.68;3.63;;;;;;;8.03;65.58;99942.44;6229452;22;20514;-76
2022/10/22 11:39:49;;;;;;;5.07;3.40;;;;;;;8.09;65.51;99942.09;6231147;22;20015;-75
2022/10/22 11:42:31;;;;;;;5.83;3.90;;;;;;;8.13;65.62;99932.16;6230984;22;20043;-76
2022/10/22 11:45:01;;;;;;;8.00;3.63;;;;;;;8.14;65.46;99932.06;6230330;22;20022;-76